Terminal Aerodrome Forecast
Issued by NWS

Home | Current Version | Previous Version | Text Only | Print | Product List | Glossary On
Versions: 1 2 3 4 5 6 7 8 9 10 11 12 13 14 15 16 17 18 19 20 21
000
FTUS44 KLZK 281747
TAFHRO
TAF
KHRO 281747Z 2818/2918 VRB05KT P6SM FEW022 FEW040
     FM282100 32005KT P6SM VCSH SCT025 BKN045
     FM290100 VRB03KT P6SM FEW050 FEW100
     FM290900 30004KT P6SM VCSH SCT040 BKN100=

USA.gov is the U.S. government's official web portal to all federal, state and local government web resources and services.